createdAt,value
2017-06-20T00:00:32.893Z,0
2017-06-20T00:01:32.896Z,0
2017-06-20T00:02:32.890Z,0
2017-06-20T00:03:32.799Z,0
2017-06-20T00:04:32.887Z,0
2017-06-20T00:05:32.886Z,0
2017-06-20T00:06:34.803Z,0
2017-06-20T00:08:32.874Z,0
2017-06-20T00:09:32.877Z,0
2017-06-20T00:10:32.567Z,0
2017-06-20T00:11:32.873Z,0
2017-06-20T00:12:32.866Z,0
2017-06-20T00:13:32.865Z,0
2017-06-20T00:14:32.861Z,0
2017-06-20T00:15:32.862Z,0
2017-06-20T00:16:32.555Z,0
2017-06-20T00:17:32.856Z,0
2017-06-20T00:18:32.851Z,0
2017-06-20T00:19:32.853Z,0
2017-06-20T00:20:32.550Z,0
2017-06-20T00:21:32.546Z,0
2017-06-20T00:22:32.846Z,0
2017-06-20T00:23:32.843Z,0
2017-06-20T00:24:32.541Z,0
2017-06-20T00:25:32.836Z,0
2017-06-20T00:26:32.835Z,0
2017-06-20T00:27:32.838Z,0
2017-06-20T00:28:32.528Z,0
2017-06-20T00:29:32.826Z,0
2017-06-20T00:30:31.916Z,0
2017-06-20T00:31:32.524Z,0
2017-06-20T00:32:33.327Z,0
2017-06-20T00:33:32.518Z,0
2017-06-20T00:34:32.816Z,0
2017-06-20T00:35:32.814Z,0
2017-06-20T00:36:32.208Z,0
2017-06-20T00:37:32.505Z,0
2017-06-20T00:38:32.805Z,0
2017-06-20T00:39:32.802Z,0
2017-06-20T00:40:32.801Z,0
2017-06-20T00:41:32.496Z,0
2017-06-20T00:42:32.493Z,0
2017-06-20T00:43:32.793Z,0
2017-06-20T00:44:32.489Z,0
2017-06-20T00:45:32.790Z,0
2017-06-20T00:46:32.790Z,0
2017-06-20T00:47:32.786Z,0
2017-06-20T00:48:32.784Z,0
2017-06-20T00:49:32.778Z,0
2017-06-20T00:50:32.780Z,0
2017-06-20T00:51:32.779Z,0
2017-06-20T00:52:32.771Z,0
2017-06-20T00:53:32.769Z,0
2017-06-20T00:54:32.769Z,0
2017-06-20T00:55:32.765Z,0
2017-06-20T00:56:32.769Z,0
2017-06-20T00:57:32.758Z,0
2017-06-20T00:58:32.764Z,0
2017-06-20T00:59:32.754Z,0
2017-06-20T01:00:32.755Z,0
2017-06-20T01:01:32.750Z,0
2017-06-20T01:02:32.752Z,0
2017-06-20T01:03:32.750Z,0
2017-06-20T01:04:32.742Z,0
2017-06-20T01:05:32.742Z,0
2017-06-20T01:06:32.742Z,0
2017-06-20T01:07:32.736Z,0
2017-06-20T01:08:32.739Z,0
2017-06-20T01:09:32.732Z,0
2017-06-20T01:10:32.430Z,0
2017-06-20T01:11:32.729Z,0
2017-06-20T01:12:32.725Z,0
2017-06-20T01:13:32.725Z,0
2017-06-20T01:14:32.720Z,0
2017-06-20T01:15:32.724Z,0
2017-06-20T01:16:32.718Z,0
2017-06-20T01:17:32.712Z,0
2017-06-20T01:18:32.709Z,0
2017-06-20T01:19:32.704Z,0
2017-06-20T01:20:32.400Z,0
2017-06-20T01:21:32.700Z,0
2017-06-20T01:22:32.699Z,0
2017-06-20T01:23:32.398Z,0
2017-06-20T01:24:32.086Z,0
2017-06-20T01:25:32.688Z,0
2017-06-20T01:26:32.687Z,0
2017-06-20T01:27:32.386Z,0
2017-06-20T01:28:32.684Z,0
2017-06-20T01:29:32.679Z,0
2017-06-20T01:30:32.380Z,0
2017-06-20T01:31:32.373Z,0
2017-06-20T01:32:32.673Z,0
2017-06-20T01:33:32.365Z,0
2017-06-20T01:34:32.364Z,0
2017-06-20T01:35:32.360Z,0
2017-06-20T01:36:32.363Z,0
2017-06-20T01:37:32.357Z,0
2017-06-20T01:38:32.657Z,0
2017-06-20T01:39:32.350Z,0
2017-06-20T01:40:32.350Z,0
2017-06-20T01:41:32.347Z,0
2017-06-20T01:42:32.343Z,0
2017-06-20T01:43:32.345Z,0
2017-06-20T01:44:32.641Z,0
2017-06-20T01:45:32.640Z,0
2017-06-20T01:46:32.638Z,0
2017-06-20T01:47:32.634Z,0
2017-06-20T01:48:32.630Z,0
2017-06-20T01:49:32.631Z,4
2017-06-20T01:50:32.624Z,4
2017-06-20T01:51:32.628Z,4
2017-06-20T01:52:32.318Z,4
2017-06-20T01:53:32.315Z,0
2017-06-20T01:54:32.614Z,0
2017-06-20T01:55:32.610Z,4
2017-06-20T01:56:32.611Z,4
2017-06-20T01:57:32.606Z,4
2017-06-20T01:58:32.603Z,4
2017-06-20T01:59:32.599Z,4
2017-06-20T02:00:32.601Z,4
2017-06-20T02:01:32.599Z,8
2017-06-20T02:02:32.593Z,4
2017-06-20T02:03:32.288Z,8
2017-06-20T02:04:32.588Z,8
2017-06-20T02:05:32.291Z,8
2017-06-20T02:06:32.582Z,8
2017-06-20T02:07:32.323Z,12
2017-06-20T02:08:32.276Z,12
2017-06-20T02:09:32.272Z,12
2017-06-20T02:10:32.574Z,16
2017-06-20T02:11:32.573Z,16
2017-06-20T02:12:32.565Z,20
2017-06-20T02:13:32.264Z,24
2017-06-20T02:14:32.563Z,24
2017-06-20T02:15:32.561Z,28
2017-06-20T02:16:32.553Z,28
2017-06-20T02:17:32.250Z,32
2017-06-20T02:18:32.553Z,36
2017-06-20T02:19:32.243Z,40
2017-06-20T02:20:32.583Z,44
2017-06-20T02:21:32.545Z,48
2017-06-20T02:22:32.238Z,56
2017-06-20T02:23:32.535Z,60
2017-06-20T02:24:32.531Z,68
2017-06-20T02:25:32.530Z,72
2017-06-20T02:26:32.528Z,84
2017-06-20T02:27:32.223Z,92
2017-06-20T02:28:32.217Z,100
2017-06-20T02:29:32.221Z,104
2017-06-20T02:30:32.214Z,116
2017-06-20T02:31:32.517Z,128
2017-06-20T02:32:32.510Z,136
2017-06-20T02:33:32.514Z,148
2017-06-20T02:34:32.506Z,160
2017-06-20T02:35:32.513Z,168
2017-06-20T02:36:32.501Z,180
2017-06-20T02:37:32.499Z,196
2017-06-20T02:38:32.496Z,204
2017-06-20T02:39:32.502Z,220
2017-06-20T02:40:32.490Z,236
2017-06-20T02:41:32.184Z,252
2017-06-20T02:42:32.183Z,268
2017-06-20T02:43:32.176Z,284
2017-06-20T02:44:32.177Z,304
2017-06-20T02:45:32.173Z,328
2017-06-20T02:46:31.870Z,352
2017-06-20T02:47:32.473Z,380
2017-06-20T02:48:32.163Z,412
2017-06-20T02:49:32.164Z,448
2017-06-20T02:50:32.159Z,484
2017-06-20T02:51:32.158Z,524
2017-06-20T02:52:32.710Z,564
2017-06-20T02:53:32.149Z,604
2017-06-20T02:54:32.458Z,648
2017-06-20T02:55:32.147Z,692
2017-06-20T02:56:32.446Z,744
2017-06-20T02:57:32.440Z,792
2017-06-20T02:58:32.140Z,844
2017-06-20T02:59:32.133Z,900
2017-06-20T03:00:32.128Z,952
2017-06-20T03:01:32.430Z,1008
2017-06-20T03:02:32.731Z,1068
2017-06-20T03:03:32.425Z,1120
2017-06-20T03:04:32.116Z,1180
2017-06-20T03:05:32.114Z,1240
2017-06-20T03:06:32.113Z,1300
2017-06-20T03:07:32.414Z,1368
2017-06-20T03:08:32.107Z,1428
2017-06-20T03:09:32.409Z,1496
2017-06-20T03:10:32.099Z,1564
2017-06-20T03:11:32.098Z,1636
2017-06-20T03:12:32.095Z,1704
2017-06-20T03:13:32.093Z,1776
2017-06-20T03:14:32.088Z,1856
2017-06-20T03:15:32.391Z,1948
2017-06-20T03:16:32.084Z,2032
2017-06-20T03:17:32.387Z,2120
2017-06-20T03:18:32.078Z,2232
2017-06-20T03:19:32.378Z,2356
2017-06-20T03:20:31.769Z,2496
2017-06-20T03:21:32.380Z,2664
2017-06-20T03:22:32.371Z,2824
2017-06-20T03:23:32.369Z,2972
2017-06-20T03:24:32.364Z,3100
2017-06-20T03:25:32.060Z,3264
2017-06-20T03:26:32.359Z,3440
2017-06-20T03:27:32.358Z,3684
2017-06-20T03:28:32.052Z,3884
2017-06-20T03:29:32.352Z,4000
2017-06-20T03:30:32.355Z,4108
2017-06-20T03:31:32.350Z,4248
2017-06-20T03:32:32.347Z,4520
2017-06-20T03:33:32.343Z,4740
2017-06-20T03:34:32.341Z,4880
2017-06-20T03:35:32.341Z,4928
2017-06-20T03:36:32.039Z,5044
2017-06-20T03:37:32.338Z,5208
2017-06-20T03:38:32.337Z,5384
2017-06-20T03:39:32.335Z,5664
2017-06-20T03:40:32.336Z,5960
2017-06-20T03:41:32.336Z,6040
2017-06-20T03:42:32.032Z,6052
2017-06-20T03:43:32.331Z,6192
2017-06-20T03:44:32.332Z,6388
2017-06-20T03:45:32.030Z,6584
2017-06-20T03:46:32.333Z,6748
2017-06-20T03:47:32.333Z,6900
2017-06-20T03:48:32.332Z,7036
2017-06-20T03:49:32.338Z,7176
2017-06-20T03:50:32.335Z,7352
2017-06-20T03:51:32.359Z,7612
2017-06-20T03:52:32.339Z,7760
2017-06-20T03:53:32.340Z,7828
2017-06-20T03:54:32.341Z,7788
2017-06-20T03:55:32.038Z,8092
2017-06-20T03:56:32.346Z,8544
2017-06-20T03:57:32.048Z,8696
2017-06-20T03:58:32.353Z,9000
2017-06-20T03:59:32.354Z,9316
2017-06-20T04:00:32.360Z,9516
2017-06-20T04:01:32.361Z,9640
2017-06-20T04:02:32.363Z,10136
2017-06-20T04:03:32.368Z,10016
2017-06-20T04:04:32.378Z,9964
2017-06-20T04:05:32.378Z,10484
2017-06-20T04:06:32.383Z,10620
2017-06-20T04:07:32.086Z,11208
2017-06-20T04:08:32.394Z,11832
2017-06-20T04:09:32.397Z,11908
2017-06-20T04:10:32.402Z,12668
2017-06-20T04:11:32.407Z,12476
2017-06-20T04:12:32.413Z,10080
2017-06-20T04:13:32.424Z,10424
2017-06-20T04:14:32.121Z,10352
2017-06-20T04:15:32.435Z,10544
2017-06-20T04:16:32.440Z,10928
2017-06-20T04:17:32.447Z,11332
2017-06-20T04:18:32.453Z,12016
2017-06-20T04:19:32.159Z,11964
2017-06-20T04:20:32.469Z,11904
2017-06-20T04:21:32.173Z,12104
2017-06-20T04:22:32.483Z,12212
2017-06-20T04:23:32.492Z,12288
2017-06-20T04:24:32.499Z,12832
2017-06-20T04:25:32.509Z,13856
2017-06-20T04:26:32.519Z,13408
2017-06-20T04:27:32.222Z,13376
2017-06-20T04:28:32.534Z,13280
2017-06-20T04:29:32.543Z,14432
2017-06-20T04:30:31.947Z,14848
2017-06-20T04:31:32.562Z,13696
2017-06-20T04:32:32.570Z,14816
2017-06-20T04:33:32.582Z,15936
2017-06-20T04:34:31.983Z,15616
2017-06-20T04:35:32.598Z,16160
2017-06-20T04:36:32.611Z,16224
2017-06-20T04:37:32.619Z,15968
2017-06-20T04:38:32.323Z,17344
2017-06-20T04:39:32.334Z,17568
2017-06-20T04:40:32.345Z,17312
2017-06-20T04:41:32.355Z,18592
2017-06-20T04:42:32.067Z,19200
2017-06-20T04:43:32.072Z,20160
2017-06-20T04:44:32.388Z,20736
2017-06-20T04:45:32.398Z,20256
2017-06-20T04:46:32.407Z,20800
2017-06-20T04:47:32.722Z,22784
2017-06-20T04:48:32.429Z,23264
2017-06-20T04:49:32.744Z,21728
2017-06-20T04:50:32.757Z,21600
2017-06-20T04:51:32.464Z,23904
2017-06-20T04:52:32.480Z,24928
2017-06-20T04:53:32.489Z,24192
2017-06-20T04:54:32.808Z,17632
2017-06-20T04:55:32.823Z,24800
2017-06-20T04:56:32.830Z,20608
2017-06-20T04:57:32.840Z,21888
2017-06-20T04:58:32.852Z,18368
2017-06-20T04:59:32.565Z,17344
2017-06-20T05:00:32.877Z,15776
2017-06-20T05:01:32.892Z,18912
2017-06-20T05:02:32.905Z,25408
2017-06-20T05:03:32.917Z,23104
2017-06-20T05:04:32.928Z,21312
2017-06-20T05:05:32.638Z,22656
2017-06-20T05:06:32.346Z,24480
2017-06-20T05:07:32.664Z,24480
2017-06-20T05:08:32.370Z,20608
2017-06-20T05:09:32.385Z,22720
2017-06-20T05:10:32.700Z,22976
2017-06-20T05:11:32.414Z,24096
2017-06-20T05:12:32.426Z,25472
2017-06-20T05:13:32.439Z,25440
2017-06-20T05:14:32.752Z,25856
2017-06-20T05:15:32.768Z,26528
2017-06-20T05:16:32.482Z,28224
2017-06-20T05:17:33.098Z,28320
2017-06-20T05:18:32.808Z,28992
2017-06-20T05:19:32.821Z,30144
2017-06-20T05:20:33.143Z,27328
2017-06-20T05:21:32.550Z,29152
2017-06-20T05:22:32.558Z,30976
2017-06-20T05:23:32.878Z,30144
2017-06-20T05:24:32.889Z,29760
2017-06-20T05:25:32.923Z,31488
2017-06-20T05:26:32.916Z,30016
2017-06-20T05:27:32.626Z,30336
2017-06-20T05:28:33.257Z,31136
2017-06-20T05:29:32.965Z,33344
2017-06-20T05:30:32.981Z,35552
2017-06-20T05:31:33.295Z,34368
2017-06-20T05:32:33.310Z,32800
2017-06-20T05:33:33.321Z,33280
2017-06-20T05:34:33.035Z,31488
2017-06-20T05:35:33.052Z,32352
2017-06-20T05:36:33.064Z,29632
2017-06-20T05:37:33.081Z,35072
2017-06-20T05:38:33.097Z,34464
2017-06-20T05:39:33.111Z,33856
2017-06-20T05:40:33.129Z,34656
2017-06-20T05:41:33.147Z,33664
2017-06-20T05:42:33.157Z,34016
2017-06-20T05:43:33.479Z,35488
2017-06-20T05:44:33.192Z,37760
2017-06-20T05:45:33.513Z,38176
2017-06-20T05:46:33.232Z,37856
2017-06-20T05:47:33.242Z,39584
2017-06-20T05:48:33.257Z,39968
2017-06-20T05:49:33.277Z,37440
2017-06-20T05:50:33.293Z,34176
2017-06-20T05:51:33.614Z,31168
2017-06-20T05:52:33.627Z,29472
2017-06-20T05:53:33.343Z,33024
2017-06-20T05:54:33.359Z,34592
2017-06-20T05:55:33.378Z,31648
2017-06-20T05:56:33.396Z,32576
2017-06-20T05:57:33.410Z,35040
2017-06-20T05:58:33.429Z,33792
2017-06-20T05:59:33.748Z,33248
2017-06-20T06:00:33.772Z,33184
2017-06-20T06:01:33.179Z,34720
2017-06-20T06:02:33.194Z,34912
2017-06-20T06:03:33.516Z,34336
2017-06-20T06:04:33.229Z,32000
2017-06-20T06:05:33.854Z,34336
2017-06-20T06:06:33.867Z,34656
2017-06-20T06:07:33.887Z,34688
2017-06-20T06:08:33.297Z,35616
2017-06-20T06:09:33.312Z,36096
2017-06-20T06:10:33.329Z,39136
2017-06-20T06:11:33.353Z,39680
2017-06-20T06:12:33.366Z,40352
2017-06-20T06:13:33.687Z,40032
2017-06-20T06:14:33.397Z,37376
2017-06-20T06:15:34.026Z,36736
2017-06-20T06:16:34.042Z,38912
2017-06-20T06:17:34.063Z,37696
2017-06-20T06:18:33.492Z,35328
2017-06-20T06:19:34.097Z,35200
2017-06-20T06:20:34.108Z,36640
2017-06-20T06:21:33.821Z,38240
2017-06-20T06:22:34.143Z,38912
2017-06-20T06:23:33.861Z,37792
2017-06-20T06:24:33.874Z,34624
2017-06-20T06:25:34.194Z,35200
2017-06-20T06:26:33.910Z,33824
2017-06-20T06:27:33.939Z,31584
2017-06-20T06:28:33.942Z,30144
2017-06-20T06:29:33.962Z,29056
2017-06-20T06:30:34.283Z,29216
2017-06-20T06:31:34.007Z,29792
2017-06-20T06:32:34.321Z,30176
2017-06-20T06:33:34.033Z,29760
2017-06-20T06:34:34.356Z,28064
2017-06-20T06:35:33.770Z,27008
2017-06-20T06:36:34.091Z,23328
2017-06-20T06:37:34.411Z,21696
2017-06-20T06:38:34.430Z,24448
2017-06-20T06:39:34.446Z,28672
2017-06-20T06:40:34.466Z,30624
2017-06-20T06:41:34.487Z,37120
2017-06-20T06:42:34.195Z,45856
2017-06-20T06:43:34.216Z,46112
2017-06-20T06:44:34.536Z,47552
2017-06-20T06:45:34.558Z,45312
2017-06-20T06:46:34.575Z,43840
2017-06-20T06:47:34.594Z,40640
2017-06-20T06:48:34.610Z,40128
2017-06-20T06:49:34.627Z,37568
2017-06-20T06:50:34.346Z,43872
2017-06-20T06:51:34.668Z,49120
2017-06-20T06:52:34.686Z,55296
2017-06-20T06:53:34.402Z,60064
2017-06-20T06:54:34.424Z,67392
2017-06-20T06:55:34.436Z,71776
2017-06-20T06:56:34.457Z,78592
2017-06-20T06:57:34.174Z,82816
2017-06-20T06:58:34.491Z,84608
2017-06-20T06:59:34.813Z,87008
2017-06-20T07:00:34.835Z,85760
2017-06-20T07:01:34.555Z,81952
2017-06-20T07:02:34.565Z,77984
2017-06-20T07:03:34.587Z,70880
2017-06-20T07:04:34.601Z,63008
2017-06-20T07:05:34.926Z,59232
2017-06-20T07:06:34.947Z,62048
2017-06-20T07:07:34.659Z,72224
2017-06-20T07:08:34.678Z,86016
2017-06-20T07:09:34.695Z,97728
2017-06-20T07:10:34.717Z,96416
2017-06-20T07:11:34.734Z,111936
2017-06-20T07:12:35.059Z,113920
2017-06-20T07:13:34.768Z,114400
2017-06-20T07:14:34.493Z,102720
2017-06-20T07:15:35.115Z,103520
2017-06-20T07:16:34.522Z,94656
2017-06-20T07:17:35.149Z,84704
2017-06-20T07:18:34.868Z,94752
2017-06-20T07:19:34.579Z,101792
2017-06-20T07:20:34.596Z,113824
2017-06-20T07:21:34.616Z,124640
2017-06-20T07:22:35.246Z,122240
2017-06-20T07:23:35.258Z,118016
2017-06-20T07:24:34.673Z,110816
2017-06-20T07:25:34.990Z,106368
2017-06-20T07:26:35.313Z,95264
2017-06-20T07:27:35.025Z,86144
2017-06-20T07:28:35.345Z,80448
2017-06-20T07:29:35.066Z,80736
2017-06-20T07:30:35.082Z,75776
2017-06-20T07:31:35.097Z,58176
2017-06-20T07:32:35.420Z,40704
2017-06-20T07:33:35.134Z,37312
2017-06-20T07:34:35.154Z,34976
2017-06-20T07:35:35.482Z,32288
2017-06-20T07:36:35.186Z,37184
2017-06-20T07:37:34.903Z,40384
2017-06-20T07:38:34.920Z,44480
2017-06-20T07:39:34.938Z,48800
2017-06-20T07:40:35.259Z,57728
2017-06-20T07:41:34.667Z,61472
2017-06-20T07:42:35.293Z,62848
2017-06-20T07:43:35.612Z,63552
2017-06-20T07:44:35.029Z,59200
2017-06-20T07:45:35.645Z,53920
2017-06-20T07:46:35.663Z,40032
2017-06-20T07:47:35.378Z,35584
2017-06-20T07:48:35.095Z,30784
2017-06-20T07:49:35.718Z,25632
2017-06-20T07:50:35.430Z,21888
2017-06-20T07:51:35.759Z,18592
2017-06-20T07:52:35.466Z,16704
2017-06-20T07:53:35.784Z,15968
2017-06-20T07:54:35.800Z,16512
2017-06-20T07:55:35.816Z,18368
2017-06-20T07:56:35.532Z,20736
2017-06-20T07:57:35.546Z,21952
2017-06-20T07:58:35.566Z,25440
2017-06-20T07:59:35.884Z,28288
2017-06-20T08:00:35.597Z,32448
2017-06-20T08:01:35.916Z,35104
2017-06-20T08:02:35.934Z,38080
2017-06-20T08:03:35.992Z,40448
2017-06-20T08:04:35.660Z,41536
2017-06-20T08:05:35.981Z,40864
2017-06-20T08:06:36.001Z,43424
2017-06-20T08:07:36.017Z,45920
2017-06-20T08:08:35.729Z,43904
2017-06-20T08:09:35.746Z,45088
2017-06-20T08:10:36.064Z,38464
2017-06-20T08:11:36.083Z,37728
2017-06-20T08:12:35.801Z,35680
2017-06-20T08:13:36.117Z,38592
2017-06-20T08:14:36.134Z,36992
2017-06-20T08:15:35.847Z,42656
2017-06-20T08:16:36.171Z,42784
2017-06-20T08:17:36.184Z,44128
2017-06-20T08:18:35.901Z,48000
2017-06-20T08:19:36.216Z,48960
2017-06-20T08:20:36.237Z,48480
2017-06-20T08:21:35.947Z,51392
2017-06-20T08:22:36.268Z,55904
2017-06-20T08:23:36.291Z,61600
2017-06-20T08:24:35.998Z,68032
2017-06-20T08:25:36.020Z,64992
2017-06-20T08:26:36.033Z,63872
2017-06-20T08:27:36.354Z,68288
2017-06-20T08:28:36.070Z,68768
2017-06-20T08:29:36.387Z,73728
2017-06-20T08:30:36.409Z,78432
2017-06-20T08:31:36.421Z,76352
2017-06-20T08:32:36.140Z,76896
2017-06-20T08:33:36.455Z,78272
2017-06-20T08:34:36.168Z,78752
2017-06-20T08:35:36.492Z,80992
2017-06-20T08:36:36.507Z,82656
2017-06-20T08:37:36.524Z,82080
2017-06-20T08:38:35.937Z,76672
2017-06-20T08:39:36.284Z,75872
2017-06-20T08:40:36.615Z,74048
2017-06-20T08:41:36.638Z,62208
2017-06-20T08:42:36.610Z,19680
2017-06-20T08:43:36.326Z,77248
2017-06-20T08:44:36.339Z,81504
2017-06-20T08:45:36.659Z,80832
2017-06-20T08:46:36.377Z,70176
2017-06-20T08:47:35.788Z,79264
2017-06-20T08:48:36.105Z,74976
2017-06-20T08:49:36.733Z,76960
2017-06-20T08:50:36.444Z,78592
2017-06-20T08:51:36.764Z,73184
2017-06-20T08:52:36.169Z,19872
2017-06-20T08:53:36.191Z,72736
2017-06-20T08:54:36.811Z,77280
2017-06-20T08:55:36.521Z,82112
2017-06-20T08:56:36.538Z,74400
2017-06-20T08:57:36.563Z,72192
2017-06-20T08:58:36.587Z,71872
2017-06-20T08:59:36.891Z,16664
2017-06-20T09:00:36.602Z,17536
2017-06-20T09:01:36.823Z,24512
2017-06-20T09:02:36.329Z,20384
2017-06-20T09:03:36.651Z,20032
2017-06-20T09:04:36.667Z,19456
2017-06-20T09:05:36.682Z,19232
2017-06-20T09:06:36.697Z,19392
2017-06-20T09:07:36.404Z,18944
2017-06-20T09:08:36.417Z,18752
2017-06-20T09:09:36.737Z,18592
2017-06-20T09:10:37.053Z,18752
2017-06-20T09:11:37.112Z,18144
2017-06-20T09:12:36.780Z,18048
2017-06-20T09:13:36.790Z,18208
2017-06-20T09:14:37.109Z,18496
2017-06-20T09:15:37.118Z,18496
2017-06-20T09:16:37.131Z,18336
2017-06-20T09:17:37.143Z,17632
2017-06-20T09:18:36.852Z,18464
2017-06-20T09:19:36.863Z,19040
2017-06-20T09:20:37.178Z,18208
2017-06-20T09:21:37.190Z,16936
2017-06-20T09:22:36.899Z,16140
2017-06-20T09:23:37.211Z,16248
2017-06-20T09:24:36.922Z,16776
2017-06-20T09:25:37.239Z,18368
2017-06-20T09:26:36.947Z,19136
2017-06-20T09:27:36.953Z,19232
2017-06-20T09:28:37.272Z,19008
2017-06-20T09:29:36.977Z,17632
2017-06-20T09:30:36.986Z,17344
2017-06-20T09:31:37.299Z,18240
2017-06-20T09:32:37.008Z,18784
2017-06-20T09:33:37.524Z,17952
2017-06-20T09:34:37.032Z,17152
2017-06-20T09:35:36.737Z,17536
2017-06-20T09:36:37.050Z,17728
2017-06-20T09:37:36.756Z,17504
2017-06-20T09:38:37.072Z,17600
2017-06-20T09:39:37.080Z,17728
2017-06-20T09:40:37.448Z,17664
2017-06-20T09:41:37.408Z,17196
2017-06-20T09:42:37.421Z,17184
2017-06-20T09:43:37.121Z,17952
2017-06-20T09:44:36.826Z,18176
2017-06-20T09:45:37.439Z,18432
2017-06-20T09:46:37.452Z,18752
2017-06-20T09:47:36.859Z,19392
2017-06-20T09:48:37.165Z,19712
2017-06-20T09:49:37.480Z,19616
2017-06-20T09:50:37.493Z,19680
2017-06-20T09:51:37.501Z,20224
2017-06-20T09:52:37.204Z,19968
2017-06-20T09:53:37.516Z,19904
2017-06-20T09:54:37.528Z,19712
2017-06-20T09:55:37.538Z,19584
2017-06-20T09:56:37.555Z,18624
2017-06-20T09:57:37.557Z,17408
2017-06-20T09:58:37.564Z,16896
2017-06-20T09:59:37.270Z,16288
2017-06-20T10:00:37.281Z,15244
2017-06-20T10:01:37.600Z,14536
2017-06-20T10:02:37.602Z,13972
2017-06-20T10:03:37.305Z,13812
2017-06-20T10:04:37.317Z,13828
2017-06-20T10:05:37.634Z,14308
2017-06-20T10:06:37.339Z,15224
2017-06-20T10:07:37.649Z,16404
2017-06-20T10:08:37.656Z,16928
2017-06-20T10:09:37.061Z,16960
2017-06-20T10:10:37.676Z,16000
2017-06-20T10:11:37.686Z,15396
2017-06-20T10:12:37.693Z,15516
2017-06-20T10:13:37.096Z,15568
2017-06-20T10:14:37.713Z,15168
2017-06-20T10:15:37.433Z,15664
2017-06-20T10:16:37.428Z,16056
2017-06-20T10:17:37.743Z,16496
2017-06-20T10:18:37.752Z,17376
2017-06-20T10:19:37.755Z,17984
2017-06-20T10:20:37.765Z,17856
2017-06-20T10:21:37.174Z,17344
2017-06-20T10:22:37.176Z,17056
2017-06-20T10:23:37.793Z,17248
2017-06-20T10:24:37.807Z,17632
2017-06-20T10:25:37.811Z,18304
2017-06-20T10:26:37.819Z,18912
2017-06-20T10:27:37.828Z,18976
2017-06-20T10:28:37.532Z,18176
2017-06-20T10:29:37.842Z,17376
2017-06-20T10:30:37.851Z,16608
2017-06-20T10:31:37.864Z,16056
2017-06-20T10:32:37.575Z,16672
2017-06-20T10:33:37.881Z,17184
2017-06-20T10:34:37.893Z,17536
2017-06-20T10:35:37.898Z,17696
2017-06-20T10:36:37.606Z,17760
2017-06-20T10:37:37.917Z,18080
2017-06-20T10:38:37.928Z,17888
2017-06-20T10:39:37.671Z,17536
2017-06-20T10:40:37.944Z,17792
2017-06-20T10:41:37.955Z,17792
2017-06-20T10:42:37.965Z,18048
2017-06-20T10:43:37.972Z,18016
2017-06-20T10:44:37.982Z,18400
2017-06-20T10:45:37.998Z,18208
2017-06-20T10:46:37.998Z,18016
2017-06-20T10:47:37.703Z,18112
2017-06-20T10:48:38.018Z,18624
2017-06-20T10:49:38.025Z,18880
2017-06-20T10:50:38.039Z,18816
2017-06-20T10:51:38.048Z,17952
2017-06-20T10:52:38.059Z,17472
2017-06-20T10:53:38.068Z,17184
2017-06-20T10:54:38.073Z,17280
2017-06-20T10:55:38.086Z,17216
2017-06-20T10:56:37.787Z,16808
2017-06-20T10:57:38.103Z,16460
2017-06-20T10:58:37.807Z,16088
2017-06-20T10:59:37.520Z,16164
2017-06-20T11:00:37.829Z,15700
2017-06-20T11:01:38.183Z,15648
2017-06-20T11:02:38.146Z,15024
2017-06-20T11:03:37.553Z,13488
2017-06-20T11:04:38.168Z,12456
2017-06-20T11:05:38.182Z,11436
2017-06-20T11:06:37.893Z,11284
2017-06-20T11:07:37.894Z,11120
2017-06-20T11:08:37.603Z,11488
2017-06-20T11:09:37.916Z,11736
2017-06-20T11:10:38.224Z,11912
2017-06-20T11:11:37.930Z,12288
2017-06-20T11:12:37.951Z,12460
2017-06-20T11:13:37.949Z,12172
2017-06-20T11:14:37.960Z,12540
2017-06-20T11:15:38.276Z,12904
2017-06-20T11:16:37.979Z,13484
2017-06-20T11:17:38.292Z,14064
2017-06-20T11:18:38.307Z,14880
2017-06-20T11:19:38.007Z,15496
2017-06-20T11:20:38.321Z,15816
2017-06-20T11:21:38.326Z,15868
2017-06-20T11:22:38.033Z,15812
2017-06-20T11:23:38.340Z,15508
2017-06-20T11:24:38.048Z,15732
2017-06-20T11:25:38.362Z,15704
2017-06-20T11:26:38.371Z,15056
2017-06-20T11:27:37.774Z,14676
2017-06-20T11:28:38.387Z,14440
2017-06-20T11:29:38.399Z,14676
2017-06-20T11:30:38.406Z,14924
2017-06-20T11:31:38.414Z,15376
2017-06-20T11:32:38.476Z,15556
2017-06-20T11:33:38.436Z,14936
2017-06-20T11:34:38.439Z,14752
2017-06-20T11:35:38.451Z,13908
2017-06-20T11:36:38.459Z,13144
2017-06-20T11:37:38.202Z,13264
2017-06-20T11:38:38.481Z,14008
2017-06-20T11:39:38.487Z,14516
2017-06-20T11:40:38.190Z,14768
2017-06-20T11:41:38.506Z,15220
2017-06-20T11:42:38.210Z,15516
2017-06-20T11:43:38.528Z,15680
2017-06-20T11:44:38.544Z,15640
2017-06-20T11:45:38.542Z,15624
2017-06-20T11:46:38.554Z,15648
2017-06-20T11:47:38.561Z,15720
2017-06-20T11:48:38.263Z,15280
2017-06-20T11:49:38.274Z,16224
2017-06-20T11:50:38.587Z,16452
2017-06-20T11:51:38.595Z,16492
2017-06-20T11:52:38.600Z,16320
2017-06-20T11:53:38.305Z,15744
2017-06-20T11:54:38.623Z,15220
2017-06-20T11:55:38.630Z,14596
2017-06-20T11:56:38.637Z,15456
2017-06-20T11:57:38.645Z,16992
2017-06-20T11:58:38.354Z,17312
2017-06-20T11:59:38.359Z,17120
2017-06-20T12:00:38.673Z,16340
2017-06-20T12:01:38.682Z,15616
2017-06-20T12:02:38.693Z,13884
2017-06-20T12:03:38.704Z,13016
2017-06-20T12:04:38.404Z,13412
2017-06-20T12:05:38.712Z,13568
2017-06-20T12:06:38.724Z,13456
2017-06-20T12:07:38.433Z,13492
2017-06-20T12:08:38.740Z,14176
2017-06-20T12:09:38.753Z,14484
2017-06-20T12:10:38.762Z,14468
2017-06-20T12:11:38.771Z,14128
2017-06-20T12:12:38.781Z,14128
2017-06-20T12:13:38.487Z,14404
2017-06-20T12:14:38.499Z,14744
2017-06-20T12:15:38.504Z,15144
2017-06-20T12:16:38.509Z,15728
2017-06-20T12:17:38.520Z,16268
2017-06-20T12:18:38.530Z,16544
2017-06-20T12:19:38.537Z,16672
2017-06-20T12:20:38.850Z,16736
2017-06-20T12:21:38.556Z,16928
2017-06-20T12:22:38.864Z,15940
2017-06-20T12:23:38.873Z,15140
2017-06-20T12:24:38.884Z,14772
2017-06-20T12:25:38.286Z,14632
2017-06-20T12:26:38.905Z,15364
2017-06-20T12:27:38.613Z,16768
2017-06-20T12:28:39.219Z,17504
2017-06-20T12:29:38.927Z,17472
2017-06-20T12:30:38.631Z,17056
2017-06-20T12:31:38.945Z,16444
2017-06-20T12:32:38.954Z,15672
2017-06-20T12:33:38.961Z,14932
2017-06-20T12:34:38.969Z,14428
2017-06-20T12:35:39.017Z,14108
2017-06-20T12:36:38.690Z,13472
2017-06-20T12:37:38.996Z,12920
2017-06-20T12:38:38.703Z,12828
2017-06-20T12:39:38.715Z,13104
2017-06-20T12:40:38.723Z,13404
2017-06-20T12:41:38.728Z,13116
2017-06-20T12:42:38.746Z,12884
2017-06-20T12:43:39.052Z,12784
2017-06-20T12:44:38.756Z,12864
2017-06-20T12:45:38.763Z,13148
2017-06-20T12:46:38.774Z,13384
2017-06-20T12:47:39.094Z,13612
2017-06-20T12:48:38.789Z,13884
2017-06-20T12:49:39.104Z,14104
2017-06-20T12:50:38.805Z,14188
2017-06-20T12:51:39.120Z,13960
2017-06-20T12:52:38.823Z,13676
2017-06-20T12:53:39.136Z,13536
2017-06-20T12:54:38.840Z,13392
2017-06-20T12:55:38.545Z,13256
2017-06-20T12:56:38.863Z,12884
2017-06-20T12:57:39.171Z,12772
2017-06-20T12:58:38.885Z,12368
2017-06-20T12:59:38.885Z,11908
2017-06-20T13:00:38.891Z,11620
2017-06-20T13:01:38.902Z,11324
2017-06-20T13:02:39.218Z,10856
2017-06-20T13:03:39.220Z,10752
2017-06-20T13:04:38.926Z,10260
2017-06-20T13:05:38.933Z,10008
2017-06-20T13:06:39.289Z,10192
2017-06-20T13:07:38.949Z,10256
2017-06-20T13:08:38.962Z,10312
2017-06-20T13:09:39.273Z,10364
2017-06-20T13:10:39.279Z,10764
2017-06-20T13:11:39.288Z,11396
2017-06-20T13:12:39.298Z,11436
2017-06-20T13:13:39.305Z,11252
2017-06-20T13:14:39.313Z,11408
2017-06-20T13:15:39.328Z,11524